Time;durP1;ratioP1;P1;durP2;ratioP2;P2;SDS_P1;SDS_P2;PMS_P1;PMS_P2;Temp;Humidity;BMP_temperature;BMP_pressure;BME280_temperature;BME280_humidity;BME280_pressure;Samples;Min_cycle;Max_cycle;Signal;HPM_P1;HPM_P2
2023/03/05 00:01:58;;;;;;;4.80;2.60;;;;;;;4.10;100.00;100675.31;5103804;28;20472;-69
2023/03/05 00:04:26;;;;;;;13.20;2.70;;;;;;;4.21;100.00;100685.25;5104385;28;20479;-68
2023/03/05 00:06:54;;;;;;;9.00;2.70;;;;;;;4.10;100.00;100673.50;5103909;28;20595;-68
2023/03/05 00:09:21;;;;;;;8.63;3.43;;;;;;;4.10;100.00;100672.66;5123739;28;20447;-68
2023/03/05 00:11:47;;;;;;;9.77;2.73;;;;;;;3.97;100.00;100675.13;5115201;28;21076;-66
2023/03/05 00:14:14;;;;;;;16.33;3.77;;;;;;;3.93;100.00;100673.63;5104741;28;20521;-68
2023/03/05 00:16:41;;;;;;;10.00;2.70;;;;;;;3.91;100.00;100675.50;5124352;28;20476;-69
2023/03/05 00:19:07;;;;;;;8.00;3.23;;;;;;;3.80;100.00;100675.25;5110431;28;20473;-68
2023/03/05 00:21:37;;;;;;;6.73;3.33;;;;;;;4.01;100.00;100674.03;5103968;28;20538;-67
2023/03/05 00:24:06;;;;;;;10.80;3.20;;;;;;;4.04;100.00;100676.47;5124762;28;20516;-67
2023/03/05 00:26:36;;;;;;;8.70;4.07;;;;;;;4.09;100.00;100676.22;5109144;28;20508;-66
2023/03/05 00:29:03;;;;;;;6.40;2.70;;;;;;;4.01;100.00;100668.75;5103454;28;20436;-66
2023/03/05 00:31:32;;;;;;;18.97;3.50;;;;;;;4.01;100.00;100671.41;5103393;28;21047;-64
2023/03/05 00:34:00;;;;;;;6.70;2.60;;;;;;;3.94;100.00;100659.44;5103937;28;20638;-67
2023/03/05 00:36:27;;;;;;;9.77;3.60;;;;;;;3.88;100.00;100657.16;5104608;28;20516;-68
2023/03/05 00:38:55;;;;;;;12.10;2.87;;;;;;;3.86;100.00;100657.25;5103661;28;20441;-65
2023/03/05 00:41:22;;;;;;;9.87;3.23;;;;;;;3.72;100.00;100647.44;5101893;28;20485;-68
2023/03/05 00:43:48;;;;;;;10.90;3.30;;;;;;;3.76;100.00;100654.25;5103704;28;20468;-59
2023/03/05 00:46:15;;;;;;;9.60;3.90;;;;;;;3.66;100.00;100644.28;5104223;28;20540;-60
2023/03/05 00:48:42;;;;;;;7.50;2.73;;;;;;;3.53;100.00;100644.13;5119061;28;20507;-67
2023/03/05 00:51:09;;;;;;;9.17;3.53;;;;;;;3.72;100.00;100647.44;5115572;28;21061;-67
2023/03/05 00:53:35;;;;;;;13.10;5.03;;;;;;;3.88;100.00;100644.78;5103694;28;21018;-65
2023/03/05 00:56:04;;;;;;;6.57;3.30;;;;;;;3.68;100.00;100643.28;5102506;28;20857;-66
2023/03/05 00:58:30;;;;;;;8.00;3.80;;;;;;;3.77;100.00;100629.53;5113653;28;20631;-67
2023/03/05 01:00:58;;;;;;;9.13;3.73;;;;;;;4.02;100.00;100624.63;5119051;28;20536;-68
2023/03/05 01:03:24;;;;;;;10.33;3.80;;;;;;;4.08;100.00;100626.88;5103497;28;20436;-66
2023/03/05 01:05:51;;;;;;;7.13;4.10;;;;;;;4.29;100.00;100623.00;5111315;28;20514;-67
2023/03/05 01:08:18;;;;;;;9.20;3.27;;;;;;;4.46;100.00;100615.81;5107589;28;20490;-66
2023/03/05 01:10:45;;;;;;;5.70;3.60;;;;;;;4.18;100.00;100617.47;5122245;28;20548;-68
2023/03/05 01:13:13;;;;;;;12.07;4.40;;;;;;;4.01;100.00;100618.47;5106446;28;20523;-67
2023/03/05 01:15:39;;;;;;;10.57;3.20;;;;;;;3.96;100.00;100613.44;5097773;28;20475;-66
2023/03/05 01:18:06;;;;;;;12.13;3.90;;;;;;;3.75;100.00;100609.41;5123576;28;20451;-66
2023/03/05 01:20:35;;;;;;;13.13;3.93;;;;;;;3.88;100.00;100605.09;5114957;28;20483;-66
2023/03/05 01:23:01;;;;;;;5.70;3.97;;;;;;;3.71;100.00;100603.41;5101599;28;20448;-67
2023/03/05 01:25:28;;;;;;;11.77;4.13;;;;;;;3.54;100.00;100595.59;5101108;28;20471;-67
2023/03/05 01:27:55;;;;;;;13.43;4.27;;;;;;;3.54;100.00;100600.88;5102534;28;20442;-66
2023/03/05 01:30:23;;;;;;;8.03;4.40;;;;;;;3.42;100.00;100591.88;5100450;28;20527;-67
2023/03/05 01:32:49;;;;;;;9.43;3.77;;;;;;;3.50;100.00;100594.06;5114984;28;20470;-65
2023/03/05 01:35:19;;;;;;;9.00;4.53;;;;;;;3.36;100.00;100589.56;5101417;28;20476;-65
2023/03/05 01:37:45;;;;;;;10.50;4.20;;;;;;;3.34;100.00;100586.16;5100626;28;20438;-66
2023/03/05 01:40:16;;;;;;;11.70;4.40;;;;;;;3.40;100.00;100572.59;5101225;28;20462;-65
2023/03/05 01:42:45;;;;;;;4.53;3.67;;;;;;;3.37;100.00;100572.78;5102054;28;20472;-64
2023/03/05 01:45:14;;;;;;;12.97;4.93;;;;;;;3.47;100.00;100579.25;5099754;28;20450;-66
2023/03/05 01:47:42;;;;;;;11.80;4.27;;;;;;;3.39;100.00;100557.69;5101987;28;20476;-64
2023/03/05 01:50:13;;;;;;;12.27;4.67;;;;;;;3.55;100.00;100561.16;5101569;28;21189;-64
2023/03/05 01:52:42;;;;;;;7.23;3.57;;;;;;;3.59;100.00;100556.53;5102375;28;21007;-66
2023/03/05 01:55:12;;;;;;;5.67;3.30;;;;;;;3.67;100.00;100558.75;5101263;28;20518;-66
2023/03/05 01:57:42;;;;;;;8.43;4.20;;;;;;;3.55;100.00;100549.72;5102087;28;20503;-66
2023/03/05 02:00:14;;;;;;;12.93;5.33;;;;;;;3.48;100.00;100551.88;5106245;28;20450;-66
2023/03/05 02:02:42;;;;;;;7.00;3.10;;;;;;;3.49;100.00;100543.00;5101591;28;20465;-64
2023/03/05 02:05:11;;;;;;;7.60;3.90;;;;;;;3.33;100.00;100550.09;5102707;28;20447;-66
2023/03/05 02:07:39;;;;;;;6.83;4.03;;;;;;;3.51;100.00;100556.16;5101787;28;20464;-67
2023/03/05 02:10:15;;;;;;;14.37;3.80;;;;;;;3.43;100.00;100538.06;5115623;28;20454;-66
2023/03/05 02:12:42;;;;;;;11.07;4.03;;;;;;;3.43;100.00;100540.72;5102102;28;20478;-64
2023/03/05 02:15:10;;;;;;;20.40;3.93;;;;;;;3.47;100.00;100534.31;5101483;28;20557;-66
2023/03/05 02:17:37;;;;;;;10.10;3.03;;;;;;;3.45;100.00;100535.34;5102555;28;20420;-66
2023/03/05 02:20:08;;;;;;;5.23;2.73;;;;;;;3.46;100.00;100523.84;5120365;28;20485;-66
2023/03/05 02:22:36;;;;;;;16.77;3.60;;;;;;;3.50;100.00;100530.63;5108340;28;20507;-65
2023/03/05 02:25:13;;;;;;;9.77;3.60;;;;;;;3.57;100.00;100529.34;5103984;28;20480;-64
2023/03/05 02:27:41;;;;;;;8.00;2.83;;;;;;;3.47;100.00;100529.03;5115853;28;20482;-65
2023/03/05 02:30:09;;;;;;;8.67;4.37;;;;;;;3.70;100.00;100524.22;5116898;28;20443;-68
2023/03/05 02:32:36;;;;;;;11.97;3.40;;;;;;;3.60;100.00;100521.25;5114833;28;20463;-65
2023/03/05 02:35:03;;;;;;;7.57;3.30;;;;;;;3.33;100.00;100510.44;5102002;28;20539;-65
2023/03/05 02:37:29;;;;;;;6.83;3.10;;;;;;;3.33;100.00;100515.75;5119370;28;20438;-64
2023/03/05 02:39:57;;;;;;;8.67;3.00;;;;;;;3.48;100.00;100511.38;5107497;28;20484;-65
2023/03/05 02:42:24;;;;;;;9.00;3.27;;;;;;;3.33;100.00;100513.09;5105840;28;20479;-66
2023/03/05 02:44:50;;;;;;;10.87;2.77;;;;;;;3.34;100.00;100509.53;5121392;28;20495;-65
2023/03/05 02:47:17;;;;;;;8.63;3.17;;;;;;;3.42;100.00;100509.94;5102308;28;21051;-66
2023/03/05 02:49:44;;;;;;;7.03;3.93;;;;;;;3.54;100.00;100511.88;5112582;28;20472;-66
2023/03/05 02:52:10;;;;;;;20.03;3.77;;;;;;;3.44;100.00;100504.53;5121271;28;20553;-67
2023/03/05 02:54:37;;;;;;;10.50;4.10;;;;;;;3.50;100.00;100499.75;5102273;28;20459;-66
2023/03/05 02:57:05;;;;;;;11.97;3.00;;;;;;;3.47;100.00;100505.25;5110719;28;20595;-66
2023/03/05 02:59:32;;;;;;;7.47;2.73;;;;;;;3.34;100.00;100493.66;5120508;28;20430;-65
2023/03/05 03:01:58;;;;;;;8.67;3.70;;;;;;;3.41;100.00;100496.81;5120559;28;20495;-64
2023/03/05 03:04:25;;;;;;;18.10;4.30;;;;;;;3.57;100.00;100482.59;5106897;28;20485;-66
2023/03/05 03:06:51;;;;;;;6.33;3.13;;;;;;;3.44;100.00;100481.63;5107153;28;20484;-66
2023/03/05 03:09:18;;;;;;;7.10;3.73;;;;;;;3.29;100.00;100472.78;5121991;28;20462;-66
2023/03/05 03:11:44;;;;;;;10.33;3.10;;;;;;;3.40;100.00;100469.50;5102434;28;20524;-66
2023/03/05 03:14:12;;;;;;;8.23;2.97;;;;;;;3.47;100.00;100468.25;5110049;28;20506;-66
2023/03/05 03:16:39;;;;;;;4.53;2.70;;;;;;;3.23;100.00;100465.22;5104169;28;20598;-67
2023/03/05 03:19:06;;;;;;;5.10;3.17;;;;;;;3.28;100.00;100476.38;5106022;28;20512;-66
2023/03/05 03:21:32;;;;;;;10.67;3.27;;;;;;;3.42;100.00;100472.06;5099982;28;20547;-64
2023/03/05 03:23:59;;;;;;;8.23;2.70;;;;;;;3.49;100.00;100466.34;5100769;28;20939;-65
2023/03/05 03:26:26;;;;;;;9.03;3.87;;;;;;;3.50;100.00;100456.63;5099264;28;20507;-65
2023/03/05 03:28:52;;;;;;;5.17;2.40;;;;;;;3.67;100.00;100459.13;5100492;28;20448;-61
2023/03/05 03:31:20;;;;;;;8.13;3.27;;;;;;;3.49;100.00;100449.63;5108045;28;20478;-65
2023/03/05 03:33:47;;;;;;;4.07;2.80;;;;;;;3.51;100.00;100445.97;5121632;28;20950;-65
2023/03/05 03:36:14;;;;;;;4.07;2.90;;;;;;;3.57;100.00;100442.09;5101883;28;20562;-64
2023/03/05 03:38:41;;;;;;;16.80;3.77;;;;;;;3.49;100.00;100441.69;5107983;28;20442;-65
2023/03/05 03:41:08;;;;;;;11.00;2.97;;;;;;;3.50;100.00;100441.59;5119993;28;20512;-67
2023/03/05 03:43:34;;;;;;;5.80;2.23;;;;;;;3.42;100.00;100438.59;5105583;28;20977;-67
2023/03/05 03:46:04;;;;;;;6.37;3.40;;;;;;;3.35;100.00;100429.28;5105080;28;20729;-65
2023/03/05 03:48:32;;;;;;;9.20;3.23;;;;;;;3.43;100.00;100434.13;5121195;28;20463;-66
2023/03/05 03:50:58;;;;;;;11.47;3.20;;;;;;;3.35;100.00;100427.53;5105819;28;20634;-66
2023/03/05 03:53:25;;;;;;;4.23;2.50;;;;;;;3.35;100.00;100429.28;5103903;28;20458;-66
2023/03/05 03:55:57;;;;;;;7.93;3.50;;;;;;;3.44;100.00;100426.13;5120040;28;20493;-66
2023/03/05 03:58:24;;;;;;;7.60;2.93;;;;;;;3.46;100.00;100434.81;5106807;28;21041;-66
2023/03/05 04:00:51;;;;;;;3.40;2.50;;;;;;;3.46;100.00;100420.75;5101669;28;20493;-65
2023/03/05 04:03:17;;;;;;;9.00;2.67;;;;;;;3.25;100.00;100415.78;5121127;28;20466;-66
2023/03/05 04:05:45;;;;;;;7.93;2.90;;;;;;;3.40;100.00;100429.88;5105696;28;20474;-66
2023/03/05 04:08:12;;;;;;;6.60;2.90;;;;;;;3.38;100.00;100411.47;5106511;28;20474;-66
2023/03/05 04:10:39;;;;;;;6.20;2.53;;;;;;;3.31;100.00;100412.75;5122921;28;20496;-64
2023/03/05 04:13:06;;;;;;;3.87;2.80;;;;;;;3.38;100.00;100402.69;5109491;28;20456;-66
2023/03/05 04:15:32;;;;;;;7.30;3.00;;;;;;;3.37;100.00;100406.28;5106413;28;20571;-66
2023/03/05 04:17:59;;;;;;;10.10;2.80;;;;;;;3.31;100.00;100401.34;5125267;28;20439;-64
2023/03/05 04:20:26;;;;;;;7.00;2.60;;;;;;;3.39;100.00;100405.25;5114338;28;20453;-66
2023/03/05 04:22:53;;;;;;;5.47;2.87;;;;;;;3.34;100.00;100402.03;5104522;28;20464;-66
2023/03/05 04:25:20;;;;;;;7.50;2.93;;;;;;;3.24;100.00;100386.81;5103032;28;20467;-66
2023/03/05 04:27:47;;;;;;;9.60;2.30;;;;;;;3.34;100.00;100388.81;5122345;28;20982;-66
2023/03/05 04:30:14;;;;;;;10.50;3.40;;;;;;;3.28;100.00;100390.97;5114320;28;20491;-64
2023/03/05 04:32:41;;;;;;;9.23;3.00;;;;;;;3.34;100.00;100387.97;5103839;28;20441;-66
2023/03/05 04:35:08;;;;;;;6.93;3.20;;;;;;;3.58;100.00;100383.00;5103092;28;20482;-66
2023/03/05 04:37:35;;;;;;;14.47;5.20;;;;;;;3.41;100.00;100381.38;5104311;28;20480;-66
2023/03/05 04:40:04;;;;;;;10.23;3.40;;;;;;;3.45;100.00;100387.31;5109500;28;20439;-66
2023/03/05 04:42:30;;;;;;;7.33;3.30;;;;;;;3.38;100.00;100385.03;5117950;28;20876;-66
2023/03/05 04:44:57;;;;;;;4.93;3.10;;;;;;;3.33;100.00;100380.97;5103738;28;20479;-65
2023/03/05 04:47:23;;;;;;;7.57;2.87;;;;;;;3.37;100.00;100378.06;5111978;28;20486;-66
2023/03/05 04:49:50;;;;;;;6.70;3.00;;;;;;;3.42;100.00;100375.16;5124452;28;20790;-67
2023/03/05 04:52:17;;;;;;;7.77;2.70;;;;;;;3.41;100.00;100367.31;5123046;28;20566;-66
2023/03/05 04:54:44;;;;;;;6.83;3.47;;;;;;;3.37;100.00;100370.13;5123322;28;20986;-67
2023/03/05 04:57:12;;;;;;;11.17;3.53;;;;;;;3.16;100.00;100369.63;5122050;28;20486;-66
2023/03/05 04:59:39;;;;;;;6.83;2.80;;;;;;;3.30;100.00;100371.44;5103008;28;20872;-66
2023/03/05 05:02:07;;;;;;;6.87;3.10;;;;;;;3.31;100.00;100367.00;5103282;28;20889;-67
2023/03/05 05:04:34;;;;;;;8.70;4.10;;;;;;;3.30;100.00;100363.53;5103574;28;20451;-67
2023/03/05 05:07:02;;;;;;;10.00;2.97;;;;;;;3.48;100.00;100358.91;5102664;28;20483;-62
2023/03/05 05:09:28;;;;;;;7.03;3.60;;;;;;;3.30;100.00;100355.59;5111702;28;20497;-67
2023/03/05 05:11:55;;;;;;;5.90;3.13;;;;;;;3.14;100.00;100360.06;5122843;28;20501;-67
2023/03/05 05:14:23;;;;;;;11.10;5.23;;;;;;;3.32;100.00;100366.06;5103442;28;20475;-65
2023/03/05 05:16:50;;;;;;;5.00;2.63;;;;;;;3.09;100.00;100360.34;5103043;28;20939;-67
2023/03/05 05:19:16;;;;;;;5.63;3.37;;;;;;;3.16;100.00;100352.91;5103737;28;20428;-65
2023/03/05 05:21:43;;;;;;;6.60;3.83;;;;;;;2.98;100.00;100354.84;5122043;28;20544;-66
2023/03/05 05:24:10;;;;;;;17.63;3.80;;;;;;;3.09;100.00;100349.78;5113489;28;20446;-66
2023/03/05 05:26:36;;;;;;;5.20;2.60;;;;;;;3.15;100.00;100349.41;5105110;28;20517;-66
2023/03/05 05:29:03;;;;;;;4.13;2.97;;;;;;;2.98;100.00;100349.56;5123173;28;21178;-62
2023/03/05 05:31:31;;;;;;;4.50;2.83;;;;;;;3.17;100.00;100349.31;5110179;28;20485;-65
2023/03/05 05:33:58;;;;;;;11.23;2.50;;;;;;;3.28;100.00;100343.41;5108055;28;20473;-64
2023/03/05 05:36:24;;;;;;;3.80;3.13;;;;;;;3.42;100.00;100350.50;5121882;28;20911;-66
2023/03/05 05:38:51;;;;;;;9.60;4.33;;;;;;;3.37;100.00;100356.06;5109037;28;20471;-65
2023/03/05 05:41:21;;;;;;;7.40;4.50;;;;;;;3.39;100.00;100355.03;5103234;28;20510;-66
2023/03/05 05:43:48;;;;;;;3.93;1.93;;;;;;;3.49;100.00;100359.75;5123463;28;20423;-66
2023/03/05 05:46:17;;;;;;;6.73;2.30;;;;;;;3.62;100.00;100359.88;5107328;28;20468;-67
2023/03/05 05:48:45;;;;;;;10.53;2.40;;;;;;;3.51;100.00;100357.88;5104160;28;20483;-66
2023/03/05 05:51:14;;;;;;;5.73;3.00;;;;;;;3.43;100.00;100360.97;5102901;28;20507;-65
2023/03/05 05:53:41;;;;;;;4.20;2.53;;;;;;;3.34;100.00;100350.97;5108434;28;20436;-67
2023/03/05 05:56:09;;;;;;;4.13;2.57;;;;;;;3.30;100.00;100344.16;5111380;28;20474;-66
2023/03/05 05:58:36;;;;;;;3.17;2.30;;;;;;;2.99;100.00;100351.28;5119959;28;20509;-67
2023/03/05 06:01:11;;;;;;;4.33;2.40;;;;;;;2.91;100.00;100351.69;5101642;28;20506;-66
2023/03/05 06:03:37;;;;;;;8.20;2.70;;;;;;;2.79;100.00;100350.59;5119010;28;20471;-67
2023/03/05 06:06:09;;;;;;;7.00;2.60;;;;;;;2.77;100.00;100344.56;5117595;28;20510;-67
2023/03/05 06:08:35;;;;;;;5.40;3.10;;;;;;;2.67;100.00;100347.84;5102289;28;20502;-67
2023/03/05 06:11:02;;;;;;;4.10;3.00;;;;;;;2.64;100.00;100352.34;5115787;28;20498;-67
2023/03/05 06:13:28;;;;;;;6.47;3.60;;;;;;;2.66;100.00;100352.28;5114668;28;20478;-67
2023/03/05 06:15:57;;;;;;;3.50;2.93;;;;;;;2.64;100.00;100349.72;5101537;28;20467;-69
2023/03/05 06:18:23;;;;;;;7.03;2.60;;;;;;;2.66;100.00;100354.91;5117849;28;20435;-66
2023/03/05 06:20:54;;;;;;;5.03;2.90;;;;;;;2.77;100.00;100349.84;5116337;28;20484;-67
2023/03/05 06:23:22;;;;;;;4.00;3.17;;;;;;;2.72;100.00;100357.19;5101447;28;20783;-67
2023/03/05 06:25:49;;;;;;;7.27;3.20;;;;;;;2.70;100.00;100358.22;5111330;28;20542;-65
2023/03/05 06:28:16;;;;;;;4.30;3.17;;;;;;;2.67;100.00;100353.13;5103906;28;20494;-66
2023/03/05 06:30:42;;;;;;;4.33;3.27;;;;;;;2.73;100.00;100350.97;5121629;28;20904;-67
2023/03/05 06:33:09;;;;;;;5.27;3.43;;;;;;;2.63;100.00;100349.81;5112227;28;20803;-66
2023/03/05 06:35:38;;;;;;;5.70;3.17;;;;;;;2.77;100.00;100341.09;5100312;28;20491;-60
2023/03/05 06:38:04;;;;;;;9.97;3.70;;;;;;;2.64;100.00;100348.88;5098527;28;20460;-61
2023/03/05 06:40:32;;;;;;;4.50;3.13;;;;;;;2.75;100.00;100345.63;5099459;28;20494;-63
2023/03/05 06:42:59;;;;;;;5.40;3.03;;;;;;;2.67;100.00;100332.84;5080918;28;20475;-64
2023/03/05 06:45:25;;;;;;;7.20;3.73;;;;;;;2.80;100.00;100346.19;5095739;28;20690;-61
2023/03/05 06:47:52;;;;;;;5.40;3.30;;;;;;;2.87;100.00;100342.25;5081403;28;20500;-61
2023/03/05 06:50:19;;;;;;;9.50;3.67;;;;;;;2.88;100.00;100341.31;5079386;28;20473;-60
2023/03/05 06:52:49;;;;;;;8.47;3.20;;;;;;;2.90;100.00;100344.72;5097565;28;20485;-60
2023/03/05 06:55:15;;;;;;;12.63;3.90;;;;;;;2.87;100.00;100344.06;5090304;28;20460;-61
2023/03/05 06:57:43;;;;;;;5.77;3.60;;;;;;;2.78;100.00;100341.00;5082488;28;21310;-61
2023/03/05 07:00:11;;;;;;;4.80;3.40;;;;;;;2.72;100.00;100340.50;5100281;28;20428;-62
2023/03/05 07:02:38;;;;;;;13.97;3.87;;;;;;;2.92;100.00;100334.94;5088322;28;20794;-61
2023/03/05 07:05:05;;;;;;;6.83;4.23;;;;;;;2.95;100.00;100339.16;5080738;28;20453;-61
2023/03/05 07:07:33;;;;;;;8.77;3.37;;;;;;;2.98;100.00;100331.06;5101037;28;20507;-61
2023/03/05 07:10:00;;;;;;;5.00;3.40;;;;;;;3.08;100.00;100328.75;5081085;28;20461;-61
2023/03/05 07:12:27;;;;;;;4.07;2.87;;;;;;;3.11;100.00;100324.13;5080956;28;20472;-61
2023/03/05 07:14:55;;;;;;;9.13;3.87;;;;;;;3.32;100.00;100335.19;5083191;28;20479;-61
2023/03/05 07:17:21;;;;;;;4.93;3.00;;;;;;;3.44;100.00;100327.47;5080408;28;20511;-61
2023/03/05 07:19:48;;;;;;;7.23;3.37;;;;;;;3.23;100.00;100326.97;5081423;28;20437;-62
2023/03/05 07:22:15;;;;;;;7.50;3.43;;;;;;;3.29;100.00;100327.44;5081946;28;20512;-61
2023/03/05 07:24:41;;;;;;;8.50;3.47;;;;;;;3.16;100.00;100321.19;5095032;28;20458;-67
2023/03/05 07:27:08;;;;;;;4.53;2.90;;;;;;;3.18;100.00;100330.75;5081282;28;20477;-67
2023/03/05 07:29:35;;;;;;;4.40;3.07;;;;;;;3.20;100.00;100313.00;5080771;28;20902;-67
2023/03/05 07:32:03;;;;;;;5.50;3.20;;;;;;;3.20;100.00;100320.94;5093820;28;20502;-67
2023/03/05 07:34:29;;;;;;;7.17;3.63;;;;;;;3.23;100.00;100319.91;5094844;28;20440;-67
2023/03/05 07:36:56;;;;;;;8.30;3.60;;;;;;;3.36;100.00;100323.50;5080479;28;20483;-66
2023/03/05 07:39:23;;;;;;;7.63;3.93;;;;;;;3.35;100.00;100315.66;5085062;28;20484;-69
2023/03/05 07:41:50;;;;;;;8.80;3.00;;;;;;;3.38;100.00;100316.31;5078396;28;21702;-69
2023/03/05 07:44:17;;;;;;;8.77;3.90;;;;;;;3.23;100.00;100313.75;5113278;28;20443;-66
2023/03/05 07:46:44;;;;;;;6.90;3.07;;;;;;;3.26;100.00;100311.78;5119964;28;20477;-69
2023/03/05 07:49:12;;;;;;;8.23;3.70;;;;;;;3.02;100.00;100303.53;5115325;28;20843;-69
2023/03/05 07:51:40;;;;;;;5.53;2.70;;;;;;;3.20;100.00;100312.16;5125215;28;20501;-69
2023/03/05 07:54:07;;;;;;;4.77;2.83;;;;;;;3.34;100.00;100306.88;5111698;28;20440;-68
2023/03/05 07:56:35;;;;;;;10.00;3.27;;;;;;;3.53;100.00;100308.41;5112265;28;20504;-68
2023/03/05 07:59:05;;;;;;;10.33;2.87;;;;;;;3.62;100.00;100307.00;5124339;28;20451;-68
2023/03/05 08:01:32;;;;;;;6.87;3.00;;;;;;;3.43;100.00;100308.13;5104109;28;20577;-69
2023/03/05 08:03:59;;;;;;;7.83;4.03;;;;;;;3.52;100.00;100310.19;5103486;28;20443;-69
2023/03/05 08:06:27;;;;;;;5.07;2.97;;;;;;;3.63;100.00;100300.75;5104077;28;20554;-66
2023/03/05 08:08:54;;;;;;;8.57;3.57;;;;;;;3.62;100.00;100310.50;5088849;28;20480;-64
2023/03/05 08:11:21;;;;;;;4.87;2.70;;;;;;;3.87;100.00;100295.72;5096234;28;20514;-68
2023/03/05 08:13:48;;;;;;;3.77;2.90;;;;;;;3.87;100.00;100298.38;5103058;28;20448;-68
2023/03/05 08:16:16;;;;;;;5.77;3.17;;;;;;;4.06;100.00;100290.13;5099606;28;20476;-66
2023/03/05 08:18:43;;;;;;;7.47;2.60;;;;;;;4.38;100.00;100293.34;5095446;28;20439;-67
2023/03/05 08:21:16;;;;;;;11.23;3.50;;;;;;;4.44;100.00;100294.75;5092457;28;20497;-67
2023/03/05 08:23:44;;;;;;;7.40;3.40;;;;;;;4.83;100.00;100296.56;5099886;28;20925;-65
2023/03/05 08:26:14;;;;;;;5.20;3.20;;;;;;;4.79;100.00;100300.38;5094196;28;20538;-66
2023/03/05 08:28:41;;;;;;;5.30;3.27;;;;;;;4.93;100.00;100288.00;5089859;28;20478;-66
2023/03/05 08:31:10;;;;;;;4.50;3.20;;;;;;;5.24;100.00;100290.28;5119890;28;20474;-66
2023/03/05 08:33:38;;;;;;;6.90;2.60;;;;;;;5.55;100.00;100282.81;5103426;28;20534;-66
2023/03/05 08:36:05;;;;;;;7.40;4.40;;;;;;;5.39;100.00;100288.34;5095999;28;20544;-66
2023/03/05 08:38:32;;;;;;;3.97;3.20;;;;;;;5.03;100.00;100286.41;5098455;28;20487;-65
2023/03/05 08:41:00;;;;;;;8.57;3.63;;;;;;;5.04;100.00;100282.81;5102044;28;20508;-66
2023/03/05 08:43:27;;;;;;;9.90;3.43;;;;;;;4.67;100.00;100286.16;5072632;28;20512;-66
2023/03/05 08:45:53;;;;;;;8.97;3.10;;;;;;;4.90;100.00;100281.09;5081125;28;20657;-67
2023/03/05 08:48:20;;;;;;;5.17;3.57;;;;;;;5.23;100.00;100279.78;5087888;28;20473;-67
2023/03/05 08:50:47;;;;;;;5.23;3.40;;;;;;;5.23;100.00;100277.13;5080156;28;20499;-68
2023/03/05 08:53:14;;;;;;;7.43;3.13;;;;;;;5.16;100.00;100271.38;5075038;28;20947;-68
2023/03/05 08:55:41;;;;;;;8.93;2.77;;;;;;;5.11;100.00;100276.16;5080586;28;20505;-67
2023/03/05 08:58:09;;;;;;;5.40;3.70;;;;;;;5.02;100.00;100279.44;5085841;28;20445;-66
2023/03/05 09:00:36;;;;;;;5.70;2.83;;;;;;;4.76;100.00;100260.00;5085679;28;20470;-67
2023/03/05 09:03:02;;;;;;;8.07;3.37;;;;;;;4.62;100.00;100274.16;5082823;28;20938;-67
2023/03/05 09:05:29;;;;;;;6.23;3.40;;;;;;;4.57;100.00;100277.13;5084372;28;20475;-67
2023/03/05 09:07:55;;;;;;;5.03;3.10;;;;;;;4.55;100.00;100273.72;5088995;28;20974;-68
2023/03/05 09:10:22;;;;;;;6.23;2.87;;;;;;;4.98;100.00;100268.19;5100250;28;20457;-67
2023/03/05 09:12:49;;;;;;;5.40;3.70;;;;;;;5.19;100.00;100267.66;5090729;28;20450;-67
2023/03/05 09:15:17;;;;;;;6.67;3.03;;;;;;;5.36;100.00;100272.63;5081789;28;20478;-68
2023/03/05 09:17:43;;;;;;;5.47;3.70;;;;;;;5.70;100.00;100261.50;5085911;28;20464;-68
2023/03/05 09:20:12;;;;;;;4.40;3.67;;;;;;;5.44;100.00;100266.81;5088839;28;20484;-67
2023/03/05 09:22:38;;;;;;;5.00;2.37;;;;;;;5.53;100.00;100257.38;5089383;28;20452;-68
2023/03/05 09:25:06;;;;;;;6.30;3.13;;;;;;;5.35;100.00;100263.00;5082332;28;20455;-68
2023/03/05 09:27:33;;;;;;;4.40;3.00;;;;;;;5.36;100.00;100258.53;5085198;28;20518;-68
2023/03/05 09:30:00;;;;;;;3.93;2.73;;;;;;;5.44;100.00;100254.41;5089144;28;20508;-68
2023/03/05 09:32:28;;;;;;;6.63;3.30;;;;;;;5.65;100.00;100257.34;5090264;28;20481;-68
2023/03/05 09:34:55;;;;;;;6.53;3.07;;;;;;;6.24;100.00;100258.47;5091666;28;20467;-67
2023/03/05 09:37:21;;;;;;;5.60;3.80;;;;;;;6.67;100.00;100257.97;5086022;28;20487;-67
2023/03/05 09:39:48;;;;;;;6.13;2.80;;;;;;;6.88;100.00;100244.00;5087914;28;20464;-67
2023/03/05 09:42:29;;;;;;;5.53;3.03;;;;;;;5.79;100.00;100252.88;5107543;28;20528;-67
2023/03/05 09:45:04;;;;;;;4.67;3.00;;;;;;;5.90;100.00;100258.22;5114753;28;20488;-66
2023/03/05 09:47:45;;;;;;;4.70;2.97;;;;;;;5.88;100.00;100252.19;5111910;28;20564;-68
2023/03/05 09:50:19;;;;;;;5.27;3.10;;;;;;;5.41;100.00;100243.16;5103900;28;20504;-64
2023/03/05 09:52:50;;;;;;;4.53;2.87;;;;;;;4.66;100.00;100242.06;5098553;28;20482;-65
2023/03/05 09:55:22;;;;;;;3.57;3.27;;;;;;;4.24;100.00;100248.41;5095884;28;20475;-66
2023/03/05 09:57:53;;;;;;;2.70;2.50;;;;;;;4.21;100.00;100251.25;5098846;28;20798;-65
2023/03/05 10:00:27;;;;;;;5.40;3.13;;;;;;;4.18;100.00;100240.88;5099200;28;20493;-65
2023/03/05 10:02:58;;;;;;;6.40;3.37;;;;;;;4.30;100.00;100232.13;5082980;28;20480;-66
2023/03/05 10:05:28;;;;;;;3.40;2.43;;;;;;;4.40;100.00;100240.31;5090638;28;20445;-66
2023/03/05 10:07:58;;;;;;;7.27;3.67;;;;;;;4.31;100.00;100233.84;5097217;28;20874;-66
2023/03/05 10:10:27;;;;;;;5.83;3.57;;;;;;;4.29;100.00;100241.03;5095346;28;20449;-66
2023/03/05 10:12:56;;;;;;;6.23;3.73;;;;;;;4.31;100.00;100241.78;5095125;28;20464;-66
2023/03/05 10:15:27;;;;;;;6.37;4.03;;;;;;;4.40;100.00;100242.97;5097691;28;20482;-66
2023/03/05 10:17:59;;;;;;;5.63;4.03;;;;;;;5.02;100.00;100234.41;5097079;28;20475;-66
2023/03/05 10:20:48;;;;;;;5.83;4.53;;;;;;;5.11;100.00;100233.75;5089599;28;20544;-66
2023/03/05 10:23:23;;;;;;;9.73;4.80;;;;;;;5.27;100.00;100231.72;5098587;28;20493;-66
2023/03/05 10:25:59;;;;;;;8.03;4.57;;;;;;;5.39;100.00;100230.00;5096229;28;20510;-65
2023/03/05 10:28:34;;;;;;;6.60;4.60;;;;;;;5.42;100.00;100221.00;5098796;28;20533;-66
2023/03/05 10:31:35;;;;;;;6.57;4.20;;;;;;;5.57;100.00;100221.72;5091072;28;20478;-66
2023/03/05 10:34:26;;;;;;;6.80;4.70;;;;;;;5.54;100.00;100225.44;5091999;28;20461;-66
2023/03/05 10:37:09;;;;;;;8.23;5.30;;;;;;;5.39;100.00;100211.47;5096152;28;20479;-65
2023/03/05 10:39:47;;;;;;;7.13;5.10;;;;;;;5.75;100.00;100217.75;5096413;28;20877;-66
2023/03/05 10:42:21;;;;;;;9.53;5.70;;;;;;;5.89;100.00;100202.66;5076644;28;20499;-65
2023/03/05 10:44:51;;;;;;;8.00;5.13;;;;;;;5.98;100.00;100200.19;5087387;28;20481;-66
2023/03/05 10:47:24;;;;;;;6.30;4.37;;;;;;;6.09;100.00;100196.75;5087354;28;20482;-66
2023/03/05 10:49:54;;;;;;;8.73;4.93;;;;;;;6.32;100.00;100195.06;5088336;28;20483;-66
2023/03/05 10:52:24;;;;;;;6.57;4.40;;;;;;;6.88;100.00;100201.50;5078319;28;20519;-65
2023/03/05 10:54:51;;;;;;;5.73;2.90;;;;;;;6.54;100.00;100191.59;5077628;28;20470;-65
2023/03/05 10:57:20;;;;;;;5.03;2.40;;;;;;;6.17;100.00;100193.53;5085227;28;20487;-65
2023/03/05 10:59:49;;;;;;;2.57;2.23;;;;;;;6.38;100.00;100183.94;5085890;28;20491;-66
2023/03/05 11:02:17;;;;;;;5.87;2.20;;;;;;;7.53;100.00;100184.84;5083896;28;20473;-66
2023/03/05 11:04:46;;;;;;;5.13;2.20;;;;;;;9.74;100.00;100185.81;5083604;28;20484;-66
2023/03/05 11:07:39;;;;;;;3.07;1.90;;;;;;;10.16;100.00;100168.72;5071546;28;21036;-67
2023/03/05 11:10:20;;;;;;;3.43;1.70;;;;;;;10.99;94.38;100165.56;5075206;28;20538;-67
2023/03/05 11:12:46;;;;;;;2.90;1.83;;;;;;;10.70;94.89;100167.31;5070976;28;20510;-66
2023/03/05 11:15:29;;;;;;;3.23;2.00;;;;;;;10.02;100.00;100167.31;5066057;28;21063;-66
2023/03/05 11:18:09;;;;;;;4.73;2.03;;;;;;;10.45;98.11;100163.41;5084245;28;20453;-66
2023/03/05 11:20:38;;;;;;;3.80;2.30;;;;;;;11.01;85.67;100155.56;5080213;28;20468;-66
2023/03/05 11:23:11;;;;;;;4.30;2.00;;;;;;;11.98;83.76;100163.13;5089710;28;20703;-66
2023/03/05 11:25:52;;;;;;;4.20;2.00;;;;;;;10.27;87.73;100157.91;5075148;28;20557;-66
2023/03/05 11:28:22;;;;;;;4.93;2.73;;;;;;;8.64;100.00;100161.59;5089491;28;20952;-66
2023/03/05 11:30:57;;;;;;;4.83;2.47;;;;;;;7.43;100.00;100145.78;5074713;28;20479;-70